TimePST,TemperatureF,Dew PointF,Humidity,Sea Level PressureIn,VisibilityMPH,Wind Direction,Wind SpeedMPH,Gust SpeedMPH,PrecipitationIn,Events,Conditions,WindDirDegrees,DateUTC
12:26 AM,44.6,39.2,81,30.22,8.0,Calm,Calm,-,N/A,,Overcast,0,2013-12-13 08:26:00
12:38 AM,42.8,39.2,87,30.22,1.8,East,3.5,-,N/A,,Overcast,80,2013-12-13 08:38:00
12:41 AM,42.8,39.2,87,30.21,1.0,East,3.5,-,N/A,,Mist,90,2013-12-13 08:41:00
12:44 AM,42.8,39.2,87,30.21,0.8,East,3.5,-,N/A,,Mist,100,2013-12-13 08:44:00
12:51 AM,43.0,41.0,93,30.22,0.5,East,3.5,-,N/A,Fog,Fog,100,2013-12-13 08:51:00
12:58 AM,44.6,41.0,87,30.21,0.2,East,3.5,-,N/A,Fog,Fog,100,2013-12-13 08:58:00
1:51 AM,44.1,42.1,93,30.22,0.2,Calm,Calm,-,N/A,Fog,Fog,0,2013-12-13 09:51:00
2:35 AM,41.0,39.2,93,30.21,0.8,South,4.6,-,N/A,,Mist,170,2013-12-13 10:35:00
2:39 AM,39.2,37.4,93,30.21,1.5,South,5.8,-,N/A,,Mostly Cloudy,170,2013-12-13 10:39:00
2:41 AM,39.2,37.4,93,30.21,3.0,South,5.8,-,N/A,,Mostly Cloudy,170,2013-12-13 10:41:00
2:51 AM,39.9,37.0,89,30.22,5.0,SSE,4.6,-,N/A,,Scattered Clouds,160,2013-12-13 10:51:00
3:09 AM,39.2,37.4,93,30.22,1.0,Calm,Calm,-,N/A,,Mist,0,2013-12-13 11:09:00
3:12 AM,41.0,37.4,87,30.22,0.2,Calm,Calm,-,N/A,Fog,Fog,0,2013-12-13 11:12:00
3:46 AM,37.4,35.6,93,30.22,0.2,ESE,3.5,-,N/A,Fog,Fog,120,2013-12-13 11:46:00
3:51 AM,39.0,36.0,89,30.24,0.2,SE,3.5,-,N/A,Fog,Fog,130,2013-12-13 11:51:00
4:03 AM,39.2,37.4,93,30.23,0.5,Calm,Calm,-,N/A,Fog,Fog,0,2013-12-13 12:03:00
4:10 AM,39.2,37.4,93,30.23,1.5,Calm,Calm,-,N/A,,Overcast,0,2013-12-13 12:10:00
4:16 AM,39.2,37.4,93,30.22,3.0,Calm,Calm,-,N/A,,Overcast,0,2013-12-13 12:16:00
4:51 AM,39.9,37.0,89,30.24,8.0,East,3.5,-,N/A,,Overcast,100,2013-12-13 12:51:00
5:28 AM,39.2,35.6,87,30.23,7.0,Calm,Calm,-,N/A,,Scattered Clouds,0,2013-12-13 13:28:00
5:51 AM,37.9,36.0,93,30.24,7.0,East,4.6,-,N/A,,Partly Cloudy,90,2013-12-13 13:51:00
6:51 AM,37.0,36.0,96,30.25,5.0,Calm,Calm,-,N/A,,Partly Cloudy,0,2013-12-13 14:51:00
7:22 AM,35.6,33.8,93,30.24,5.0,ENE,5.8,-,N/A,,Mostly Cloudy,70,2013-12-13 15:22:00
7:29 AM,35.6,33.8,93,30.24,0.2,East,4.6,-,N/A,,Mostly Cloudy,80,2013-12-13 15:29:00
7:51 AM,39.9,37.9,93,30.27,0.2,Calm,Calm,-,N/A,Fog,Fog,0,2013-12-13 15:51:00
8:49 AM,44.6,41.0,87,30.25,3.0,Calm,Calm,-,N/A,,Scattered Clouds,0,2013-12-13 16:49:00
8:51 AM,44.1,42.1,93,30.27,3.0,Calm,Calm,-,N/A,,Scattered Clouds,0,2013-12-13 16:51:00
9:05 AM,44.6,42.8,93,30.26,8.0,Calm,Calm,-,N/A,,Partly Cloudy,0,2013-12-13 17:05:00
9:51 AM,50.0,37.0,61,30.28,10.0,Calm,Calm,-,N/A,,Clear,0,2013-12-13 17:51:00
10:51 AM,55.0,39.9,57,30.27,10.0,WNW,6.9,-,N/A,,Partly Cloudy,300,2013-12-13 18:51:00
11:51 AM,60.1,39.0,46,30.24,10.0,North,6.9,-,N/A,,Clear,350,2013-12-13 19:51:00
12:51 PM,61.0,42.1,50,30.21,10.0,WNW,12.7,-,N/A,,Clear,300,2013-12-13 20:51:00
1:51 PM,61.0,42.1,50,30.19,10.0,WNW,12.7,-,N/A,,Clear,290,2013-12-13 21:51:00
2:51 PM,60.1,46.0,60,30.19,10.0,WNW,12.7,-,N/A,,Clear,300,2013-12-13 22:51:00
3:51 PM,57.9,46.9,67,30.19,10.0,NW,11.5,-,N/A,,Clear,320,2013-12-13 23:51:00
4:51 PM,55.0,46.0,72,30.20,9.0,Calm,Calm,-,N/A,,Clear,0,2013-12-14 00:51:00
5:51 PM,54.0,45.0,72,30.21,10.0,NNW,3.5,-,N/A,,Clear,340,2013-12-14 01:51:00
6:51 PM,48.0,41.0,77,30.22,9.0,Calm,Calm,-,N/A,,Clear,0,2013-12-14 02:51:00
7:51 PM,46.9,37.0,68,30.22,9.0,Calm,Calm,-,N/A,,Clear,0,2013-12-14 03:51:00
8:51 PM,48.9,28.0,44,30.23,9.0,Calm,Calm,-,N/A,,Clear,0,2013-12-14 04:51:00
9:51 PM,42.1,30.9,65,30.23,7.0,South,8.1,-,N/A,,Clear,170,2013-12-14 05:51:00
10:51 PM,41.0,30.9,67,30.25,7.0,ENE,4.6,-,N/A,,Clear,70,2013-12-14 06:51:00
11:51 PM,39.9,30.0,68,30.25,9.0,SE,4.6,-,N/A,,Clear,130,2013-12-14 07:51:00